Time;durP1;ratioP1;P1;durP2;ratioP2;P2;SDS_P1;SDS_P2;PMS_P1;PMS_P2;Temp;Humidity;BMP_temperature;BMP_pressure;BME280_temperature;BME280_humidity;BME280_pressure;Samples;Min_cycle;Max_cycle;Signal;HPM_P1;HPM_P2
2023/04/20 00:00:39;;;;;;;3.75;2.58;;;;;;;;;;5056810;28;20032;-58
2023/04/20 00:03:06;;;;;;;3.33;2.70;;;;;;;;;;5056699;28;20028;-58
2023/04/20 00:05:32;;;;;;;3.50;2.65;;;;;;;;;;5056636;28;20029;-58
2023/04/20 00:07:58;;;;;;;3.40;2.75;;;;;;;;;;5055406;28;20032;-59
2023/04/20 00:10:24;;;;;;;3.60;2.20;;;;;;;;;;5056537;28;20367;-59
2023/04/20 00:12:50;;;;;;;4.40;3.15;;;;;;;;;;5056474;28;20036;-59
2023/04/20 00:15:16;;;;;;;4.00;2.78;;;;;;;;;;5056176;28;20049;-59
2023/04/20 00:17:43;;;;;;;3.20;2.15;;;;;;;;;;5056299;28;20058;-59
2023/04/20 00:20:09;;;;;;;5.50;3.22;;;;;;;;;;5056394;28;20029;-58
2023/04/20 00:22:35;;;;;;;9.13;3.00;;;;;;;;;;5056336;28;20029;-59
2023/04/20 00:25:01;;;;;;;3.70;2.42;;;;;;;;;;5056903;28;20079;-59
2023/04/20 00:27:28;;;;;;;4.80;2.60;;;;;;;;;;5055885;28;20414;-59
2023/04/20 00:29:54;;;;;;;4.18;2.78;;;;;;;;;;5056203;28;20356;-59
2023/04/20 00:32:19;;;;;;;4.57;3.40;;;;;;;;;;5056466;28;20095;-59
2023/04/20 00:34:45;;;;;;;4.82;2.40;;;;;;;;;;5054871;28;20091;-59
2023/04/20 00:37:11;;;;;;;3.38;2.42;;;;;;;;;;5056305;28;20021;-59
2023/04/20 00:39:37;;;;;;;4.55;2.10;;;;;;;;;;5056425;28;20035;-58
2023/04/20 00:42:07;;;;;;;4.57;2.75;;;;;;;;;;5056019;28;20455;-59
2023/04/20 00:44:33;;;;;;;4.57;3.03;;;;;;;;;;5055910;28;20025;-59
2023/04/20 00:47:00;;;;;;;3.45;2.88;;;;;;;;;;5055828;28;20025;-60
2023/04/20 00:49:28;;;;;;;3.33;2.70;;;;;;;;;;5055989;28;20112;-57
2023/04/20 00:51:54;;;;;;;4.15;2.40;;;;;;;;;;5055681;28;20028;-60
2023/04/20 00:54:21;;;;;;;4.07;2.63;;;;;;;;;;5055643;28;20108;-60
2023/04/20 00:56:47;;;;;;;3.47;2.85;;;;;;;;;;5056244;28;20453;-59
2023/04/20 00:59:13;;;;;;;3.90;2.33;;;;;;;;;;5055569;28;20063;-59
2023/04/20 01:01:40;;;;;;;3.67;2.70;;;;;;;;;;5056087;28;20079;-59
2023/04/20 01:04:06;;;;;;;8.52;2.65;;;;;;;;;;5055743;28;20032;-59
2023/04/20 01:06:33;;;;;;;2.85;2.53;;;;;;;;;;5055258;28;20017;-59
2023/04/20 01:08:59;;;;;;;3.65;2.05;;;;;;;;;;5055467;28;20036;-59
2023/04/20 01:11:25;;;;;;;5.50;2.72;;;;;;;;;;5056256;28;20107;-59
2023/04/20 01:13:51;;;;;;;4.03;2.60;;;;;;;;;;5055594;28;20463;-59
2023/04/20 01:16:17;;;;;;;4.20;2.85;;;;;;;;;;5055647;28;20025;-59
2023/04/20 01:18:43;;;;;;;4.10;3.10;;;;;;;;;;5055180;28;20119;-60
2023/04/20 01:21:09;;;;;;;5.35;2.67;;;;;;;;;;5055766;28;20375;-59
2023/04/20 01:23:35;;;;;;;3.55;2.80;;;;;;;;;;5055988;28;20025;-58
2023/04/20 01:26:05;;;;;;;4.53;2.67;;;;;;;;;;5054829;28;20021;-59
2023/04/20 01:28:31;;;;;;;3.73;2.60;;;;;;;;;;5055389;28;20131;-60
2023/04/20 01:30:57;;;;;;;3.58;2.55;;;;;;;;;;5055820;28;20295;-60
2023/04/20 01:33:23;;;;;;;7.45;3.45;;;;;;;;;;5054954;28;20025;-59
2023/04/20 01:35:49;;;;;;;4.55;3.35;;;;;;;;;;5055538;28;20036;-59
2023/04/20 01:38:18;;;;;;;4.32;2.60;;;;;;;;;;5054194;28;20120;-60
2023/04/20 01:40:44;;;;;;;2.80;2.25;;;;;;;;;;5055361;28;20363;-59
2023/04/20 01:43:10;;;;;;;4.07;3.00;;;;;;;;;;5055266;28;20036;-59
2023/04/20 01:45:36;;;;;;;4.50;2.78;;;;;;;;;;5055137;28;20033;-59
2023/04/20 01:48:02;;;;;;;3.85;2.75;;;;;;;;;;5054727;28;20033;-60
2023/04/20 01:50:28;;;;;;;6.05;3.00;;;;;;;;;;5054658;28;20028;-59
2023/04/20 01:52:54;;;;;;;4.03;2.58;;;;;;;;;;5054922;28;20107;-59
2023/04/20 01:55:20;;;;;;;3.40;2.78;;;;;;;;;;5054327;28;20433;-59
2023/04/20 01:57:46;;;;;;;4.53;3.00;;;;;;;;;;5054529;28;20025;-59
2023/04/20 02:00:12;;;;;;;4.15;3.10;;;;;;;;;;5054555;28;20379;-59
2023/04/20 02:02:38;;;;;;;3.95;2.97;;;;;;;;;;5054419;28;20485;-60
2023/04/20 02:05:04;;;;;;;5.35;3.08;;;;;;;;;;5054311;28;20029;-59
2023/04/20 02:07:30;;;;;;;3.40;2.50;;;;;;;;;;5054639;28;20032;-59
2023/04/20 02:09:56;;;;;;;3.10;2.25;;;;;;;;;;5054632;28;20379;-59
2023/04/20 02:12:22;;;;;;;6.43;3.20;;;;;;;;;;5054289;28;20028;-59
2023/04/20 02:14:48;;;;;;;3.95;3.00;;;;;;;;;;5054699;28;20406;-59
2023/04/20 02:17:14;;;;;;;5.13;4.07;;;;;;;;;;5054212;28;20029;-59
2023/04/20 02:19:40;;;;;;;5.55;3.28;;;;;;;;;;5054109;28;20111;-59
2023/04/20 02:22:06;;;;;;;6.45;3.05;;;;;;;;;;5054168;28;20459;-59
2023/04/20 02:24:32;;;;;;;4.82;2.75;;;;;;;;;;5054050;28;20078;-60
2023/04/20 02:26:58;;;;;;;4.13;3.55;;;;;;;;;;5054375;28;20029;-59
2023/04/20 02:29:24;;;;;;;5.03;3.45;;;;;;;;;;5053975;28;20029;-59
2023/04/20 02:31:50;;;;;;;4.72;3.28;;;;;;;;;;5053996;28;20017;-59
2023/04/20 02:34:16;;;;;;;6.78;3.17;;;;;;;;;;5054212;28;20104;-59
2023/04/20 02:36:42;;;;;;;5.57;3.33;;;;;;;;;;5054082;28;20037;-59
2023/04/20 02:39:09;;;;;;;4.97;3.85;;;;;;;;;;5053742;28;20513;-59
2023/04/20 02:41:35;;;;;;;6.65;4.15;;;;;;;;;;5053745;28;20041;-59
2023/04/20 02:44:01;;;;;;;4.27;3.20;;;;;;;;;;5053732;28;20082;-59
2023/04/20 02:46:26;;;;;;;3.95;2.85;;;;;;;;;;5054152;28;20026;-59
2023/04/20 02:48:54;;;;;;;7.40;3.47;;;;;;;;;;5053014;28;20063;-59
2023/04/20 02:51:20;;;;;;;4.67;3.57;;;;;;;;;;5053949;28;20029;-59
2023/04/20 02:53:46;;;;;;;7.03;3.60;;;;;;;;;;5053355;28;20032;-59
2023/04/20 02:56:12;;;;;;;3.47;2.53;;;;;;;;;;5053974;28;20025;-59
2023/04/20 02:58:38;;;;;;;3.58;3.03;;;;;;;;;;5053532;28;20025;-59
2023/04/20 03:01:04;;;;;;;2.95;2.33;;;;;;;;;;5053852;28;20039;-59
2023/04/20 03:03:30;;;;;;;4.13;3.20;;;;;;;;;;5053870;28;20044;-58
2023/04/20 03:05:56;;;;;;;3.92;3.28;;;;;;;;;;5053937;28;20055;-59
2023/04/20 03:08:22;;;;;;;5.60;3.47;;;;;;;;;;5053505;28;20021;-59
2023/04/20 03:10:48;;;;;;;5.90;4.07;;;;;;;;;;5053569;28;20040;-59
2023/04/20 03:13:14;;;;;;;6.07;3.23;;;;;;;;;;5053503;28;20399;-59
2023/04/20 03:15:40;;;;;;;3.80;3.23;;;;;;;;;;5053830;28;20052;-60
2023/04/20 03:18:06;;;;;;;4.40;2.78;;;;;;;;;;5053392;28;20455;-60
2023/04/20 03:20:32;;;;;;;6.53;3.85;;;;;;;;;;5053979;28;20033;-59
2023/04/20 03:22:58;;;;;;;5.23;3.47;;;;;;;;;;5053367;28;20087;-59
2023/04/20 03:25:24;;;;;;;10.10;5.53;;;;;;;;;;5053154;28;20033;-59
2023/04/20 03:27:50;;;;;;;5.37;3.50;;;;;;;;;;5053575;28;20053;-59
2023/04/20 03:30:16;;;;;;;5.27;3.50;;;;;;;;;;5052960;28;20037;-59
2023/04/20 03:32:42;;;;;;;5.32;3.70;;;;;;;;;;5053214;28;20029;-60
2023/04/20 03:35:08;;;;;;;5.73;3.53;;;;;;;;;;5053309;28;20375;-60
2023/04/20 03:37:36;;;;;;;3.03;2.42;;;;;;;;;;5053914;28;20033;-59
2023/04/20 03:40:02;;;;;;;3.90;3.13;;;;;;;;;;5053782;28;20045;-59
2023/04/20 03:42:29;;;;;;;7.03;3.73;;;;;;;;;;5053702;28;20374;-59
2023/04/20 03:44:55;;;;;;;4.50;3.50;;;;;;;;;;5053221;28;20078;-59
2023/04/20 03:47:21;;;;;;;3.77;3.07;;;;;;;;;;5052830;28;20112;-59
2023/04/20 03:49:47;;;;;;;10.45;4.15;;;;;;;;;;5053243;28;20442;-59
2023/04/20 03:52:13;;;;;;;4.95;4.05;;;;;;;;;;5053210;28;20029;-59
2023/04/20 03:54:39;;;;;;;3.53;2.70;;;;;;;;;;5053275;28;20401;-57
2023/04/20 03:57:05;;;;;;;4.63;3.05;;;;;;;;;;5053969;28;20340;-57
2023/04/20 03:59:31;;;;;;;5.40;3.83;;;;;;;;;;5054088;28;20083;-57
2023/04/20 04:01:57;;;;;;;5.33;3.80;;;;;;;;;;5057117;28;20371;-57
2023/04/20 04:04:23;;;;;;;4.43;3.53;;;;;;;;;;5056760;28;20025;-57
2023/04/20 04:06:49;;;;;;;6.00;3.37;;;;;;;;;;5057333;28;20036;-57
2023/04/20 04:09:15;;;;;;;3.47;3.03;;;;;;;;;;5057181;28;20475;-56
2023/04/20 04:11:41;;;;;;;5.60;3.95;;;;;;;;;;5056913;28;20100;-57
2023/04/20 04:14:07;;;;;;;5.35;4.13;;;;;;;;;;5056601;28;20117;-55
2023/04/20 04:16:33;;;;;;;4.05;2.85;;;;;;;;;;5056547;28;20116;-57
2023/04/20 04:18:59;;;;;;;5.27;4.13;;;;;;;;;;5056770;28;20037;-57
2023/04/20 04:21:26;;;;;;;4.80;3.23;;;;;;;;;;5056499;28;20029;-57
2023/04/20 04:23:52;;;;;;;6.10;3.13;;;;;;;;;;5056434;28;20159;-59
2023/04/20 04:26:20;;;;;;;5.47;4.55;;;;;;;;;;5056995;28;20071;-59
2023/04/20 04:28:46;;;;;;;5.57;4.63;;;;;;;;;;5056284;28;20066;-58
2023/04/20 04:31:12;;;;;;;3.60;3.10;;;;;;;;;;5056512;28;20028;-58
2023/04/20 04:33:38;;;;;;;4.10;3.07;;;;;;;;;;5056561;28;20029;-59
2023/04/20 04:36:04;;;;;;;6.78;3.22;;;;;;;;;;5056696;28;20034;-58
2023/04/20 04:38:32;;;;;;;4.73;3.80;;;;;;;;;;5055994;28;20078;-58
2023/04/20 04:40:58;;;;;;;6.03;4.17;;;;;;;;;;5056085;28;20029;-59
2023/04/20 04:43:24;;;;;;;4.82;3.38;;;;;;;;;;5056147;28;20370;-58
2023/04/20 04:45:50;;;;;;;2.67;2.25;;;;;;;;;;5056243;28;20020;-59
2023/04/20 04:48:16;;;;;;;4.83;3.60;;;;;;;;;;5056490;28;20383;-59
2023/04/20 04:50:42;;;;;;;5.60;4.03;;;;;;;;;;5056336;28;20055;-59
2023/04/20 04:53:08;;;;;;;5.33;4.83;;;;;;;;;;5055693;28;20036;-59
2023/04/20 04:55:34;;;;;;;7.50;4.13;;;;;;;;;;5055646;28;20084;-59
2023/04/20 04:58:00;;;;;;;8.50;3.90;;;;;;;;;;5055571;28;20039;-59
2023/04/20 05:00:26;;;;;;;6.03;4.03;;;;;;;;;;5056204;28;20040;-59
2023/04/20 05:02:52;;;;;;;4.43;3.58;;;;;;;;;;5055556;28;20356;-59
2023/04/20 05:05:19;;;;;;;4.90;3.92;;;;;;;;;;5056163;28;20406;-59
2023/04/20 05:07:45;;;;;;;4.53;3.30;;;;;;;;;;5055889;28;20029;-59
2023/04/20 05:10:11;;;;;;;3.73;3.30;;;;;;;;;;5056156;28;20032;-59
2023/04/20 05:12:37;;;;;;;4.65;3.28;;;;;;;;;;5054487;28;20028;-59
2023/04/20 05:15:03;;;;;;;6.82;4.43;;;;;;;;;;5054907;28;20507;-59
2023/04/20 05:17:29;;;;;;;4.67;3.90;;;;;;;;;;5055311;28;20029;-59
2023/04/20 05:19:55;;;;;;;5.33;3.37;;;;;;;;;;5055298;28;20107;-59
2023/04/20 05:22:21;;;;;;;5.63;3.58;;;;;;;;;;5055592;28;20033;-59
2023/04/20 05:24:47;;;;;;;5.50;3.70;;;;;;;;;;5054818;28;20025;-59
2023/04/20 05:27:13;;;;;;;5.35;4.13;;;;;;;;;;5055535;28;20123;-59
2023/04/20 05:29:39;;;;;;;4.90;3.75;;;;;;;;;;5055217;28;20105;-59
2023/04/20 05:32:05;;;;;;;4.45;3.53;;;;;;;;;;5055620;28;20033;-59
2023/04/20 05:34:31;;;;;;;6.00;4.38;;;;;;;;;;5054893;28;20057;-59
2023/04/20 05:36:58;;;;;;;3.78;3.28;;;;;;;;;;5055168;28;20017;-59
2023/04/20 05:39:24;;;;;;;5.45;3.22;;;;;;;;;;5054826;28;20091;-59
2023/04/20 05:41:50;;;;;;;4.93;3.88;;;;;;;;;;5054894;28;20108;-59
2023/04/20 05:44:16;;;;;;;4.13;3.38;;;;;;;;;;5054696;28;20029;-59
2023/04/20 05:46:42;;;;;;;6.10;4.70;;;;;;;;;;5055360;28;20036;-59
2023/04/20 05:49:07;;;;;;;4.57;3.08;;;;;;;;;;5054988;28;20069;-59
2023/04/20 05:51:33;;;;;;;6.03;3.80;;;;;;;;;;5054722;28;20029;-59
2023/04/20 05:54:00;;;;;;;6.28;4.50;;;;;;;;;;5055062;28;20033;-59
2023/04/20 05:56:26;;;;;;;5.45;4.05;;;;;;;;;;5054852;28;20455;-58
2023/04/20 05:58:52;;;;;;;5.38;4.03;;;;;;;;;;5054469;28;20033;-59
2023/04/20 06:01:18;;;;;;;5.30;3.72;;;;;;;;;;5055269;28;20417;-59
2023/04/20 06:03:45;;;;;;;4.00;3.40;;;;;;;;;;5054787;28;20025;-57
2023/04/20 06:06:11;;;;;;;5.20;4.32;;;;;;;;;;5055237;28;20044;-57
2023/04/20 06:08:37;;;;;;;3.85;2.88;;;;;;;;;;5055059;28;20028;-59
2023/04/20 06:11:03;;;;;;;5.88;4.03;;;;;;;;;;5054234;28;20029;-59
2023/04/20 06:13:29;;;;;;;5.20;4.10;;;;;;;;;;5054185;28;20036;-57
2023/04/20 06:15:55;;;;;;;5.18;4.20;;;;;;;;;;5054926;28;20480;-59
2023/04/20 06:18:21;;;;;;;8.13;4.43;;;;;;;;;;5053787;28;20501;-58
2023/04/20 06:20:47;;;;;;;5.85;4.20;;;;;;;;;;5054056;28;20359;-57
2023/04/20 06:23:13;;;;;;;5.40;4.03;;;;;;;;;;5053793;28;20029;-57
2023/04/20 06:25:39;;;;;;;5.05;3.92;;;;;;;;;;5054096;28;20029;-57
2023/04/20 06:28:05;;;;;;;5.18;4.35;;;;;;;;;;5054093;28;20027;-57
2023/04/20 06:30:32;;;;;;;6.18;3.72;;;;;;;;;;5053572;28;20308;-57
2023/04/20 06:32:58;;;;;;;5.90;4.28;;;;;;;;;;5053792;28;20104;-59
2023/04/20 06:35:25;;;;;;;7.60;5.28;;;;;;;;;;5053814;28;20370;-59
2023/04/20 06:37:51;;;;;;;8.07;4.53;;;;;;;;;;5053753;28;20025;-59
2023/04/20 06:40:17;;;;;;;5.97;4.50;;;;;;;;;;5054029;28;20029;-59
2023/04/20 06:42:44;;;;;;;6.20;4.60;;;;;;;;;;5053546;28;20017;-59
2023/04/20 06:45:10;;;;;;;7.63;5.22;;;;;;;;;;5054143;28;20025;-59
2023/04/20 06:47:36;;;;;;;5.05;4.07;;;;;;;;;;5053988;28;20025;-59
2023/04/20 06:50:03;;;;;;;7.72;5.00;;;;;;;;;;5053390;28;20158;-59
2023/04/20 06:52:30;;;;;;;6.32;4.85;;;;;;;;;;5053540;28;20029;-61
2023/04/20 06:54:58;;;;;;;6.07;4.75;;;;;;;;;;5053599;28;20044;-59
2023/04/20 06:57:24;;;;;;;8.15;5.40;;;;;;;;;;5053885;28;20028;-59
2023/04/20 06:59:50;;;;;;;7.78;4.40;;;;;;;;;;5054077;28;20379;-59
2023/04/20 07:02:16;;;;;;;6.75;5.07;;;;;;;;;;5053616;28;20021;-59
2023/04/20 07:04:42;;;;;;;7.28;4.45;;;;;;;;;;5053849;28;20414;-59
2023/04/20 07:07:08;;;;;;;6.45;4.75;;;;;;;;;;5054241;28;20045;-59
2023/04/20 07:09:34;;;;;;;8.98;4.65;;;;;;;;;;5053543;28;20035;-59
2023/04/20 07:12:00;;;;;;;6.28;4.53;;;;;;;;;;5053546;28;20029;-59
2023/04/20 07:14:26;;;;;;;6.65;4.65;;;;;;;;;;5053599;28;20440;-59
2023/04/20 07:16:52;;;;;;;6.88;4.85;;;;;;;;;;5054021;28;20033;-59
2023/04/20 07:19:18;;;;;;;6.50;4.15;;;;;;;;;;5053183;28;20162;-59
2023/04/20 07:21:45;;;;;;;5.20;4.63;;;;;;;;;;5053137;28;20071;-59
2023/04/20 07:24:11;;;;;;;6.35;5.60;;;;;;;;;;5053329;28;20486;-59
2023/04/20 07:26:37;;;;;;;5.32;4.38;;;;;;;;;;5053790;28;20032;-59
2023/04/20 07:29:03;;;;;;;5.85;4.63;;;;;;;;;;5053394;28;20037;-59
2023/04/20 07:31:29;;;;;;;11.27;4.50;;;;;;;;;;5053661;28;20036;-59
2023/04/20 07:33:55;;;;;;;5.88;4.55;;;;;;;;;;5053628;28;20370;-59
2023/04/20 07:36:21;;;;;;;4.82;4.38;;;;;;;;;;5056920;28;20112;-59
2023/04/20 07:38:48;;;;;;;7.63;5.20;;;;;;;;;;5057514;28;20029;-59
2023/04/20 07:41:14;;;;;;;7.13;5.30;;;;;;;;;;5057738;28;20378;-59
2023/04/20 07:43:40;;;;;;;7.88;5.20;;;;;;;;;;5057140;28;20060;-58
2023/04/20 07:46:06;;;;;;;4.85;4.25;;;;;;;;;;5057472;28;20394;-59
2023/04/20 07:48:33;;;;;;;10.13;5.78;;;;;;;;;;5057498;28;20075;-59
2023/04/20 07:50:59;;;;;;;7.15;4.50;;;;;;;;;;5057030;28;20072;-59
2023/04/20 07:53:26;;;;;;;12.35;5.95;;;;;;;;;;5056947;28;20083;-59
2023/04/20 07:55:52;;;;;;;6.43;4.72;;;;;;;;;;5057189;28;20078;-59
2023/04/20 07:58:19;;;;;;;7.95;6.28;;;;;;;;;;5057000;28;20411;-58
2023/04/20 08:00:46;;;;;;;7.47;5.13;;;;;;;;;;5056816;28;20064;-59
2023/04/20 08:03:12;;;;;;;8.27;5.38;;;;;;;;;;5056816;28;20032;-59
2023/04/20 08:05:39;;;;;;;10.32;6.57;;;;;;;;;;5056748;28;20033;-58
2023/04/20 08:08:05;;;;;;;7.18;5.85;;;;;;;;;;5057459;28;20029;-59
2023/04/20 08:10:31;;;;;;;10.98;5.97;;;;;;;;;;5056636;28;20021;-59
2023/04/20 08:12:58;;;;;;;7.68;5.57;;;;;;;;;;5056586;28;20025;-58
2023/04/20 08:15:24;;;;;;;6.53;5.30;;;;;;;;;;5057098;28;20146;-59
2023/04/20 08:17:50;;;;;;;7.30;6.20;;;;;;;;;;5056132;28;20368;-59
2023/04/20 08:20:45;;;;;;;6.07;5.47;;;;;;;;;;5056288;28;20033;-59
2023/04/20 08:23:13;;;;;;;7.90;5.13;;;;;;;;;;5046885;28;20390;-57
2023/04/20 08:25:39;;;;;;;9.70;5.80;;;;;;;;;;5056450;28;20515;-59
2023/04/20 08:28:06;;;;;;;8.77;6.28;;;;;;;;;;5056348;28;20037;-59
2023/04/20 08:30:32;;;;;;;8.55;6.45;;;;;;;;;;5056374;28;20032;-59
2023/04/20 08:32:58;;;;;;;6.82;5.32;;;;;;;;;;5056045;28;20067;-59
2023/04/20 08:35:24;;;;;;;7.88;5.82;;;;;;;;;;5056700;28;20032;-59
2023/04/20 08:37:50;;;;;;;10.80;5.05;;;;;;;;;;5056151;28;20033;-59
2023/04/20 08:40:19;;;;;;;8.10;7.30;;;;;;;;;;5056165;28;20378;-59
2023/04/20 08:42:46;;;;;;;6.65;5.93;;;;;;;;;;5056588;28;20021;-59
2023/04/20 08:45:12;;;;;;;7.88;5.47;;;;;;;;;;5055773;28;20025;-59
2023/04/20 08:47:38;;;;;;;9.80;6.30;;;;;;;;;;5056151;28;20108;-59
2023/04/20 08:50:05;;;;;;;7.85;6.03;;;;;;;;;;5055959;28;20078;-59
2023/04/20 08:52:34;;;;;;;7.82;6.65;;;;;;;;;;5054360;28;20024;-59
2023/04/20 08:55:00;;;;;;;6.28;4.60;;;;;;;;;;5055820;28;20107;-59
2023/04/20 08:57:26;;;;;;;7.72;5.60;;;;;;;;;;5055650;28;20418;-59
2023/04/20 08:59:52;;;;;;;9.82;5.10;;;;;;;;;;5055903;28;20029;-59
2023/04/20 09:02:18;;;;;;;6.65;5.85;;;;;;;;;;5056261;28;20053;-59
2023/04/20 09:04:47;;;;;;;5.57;5.03;;;;;;;;;;5056126;28;20036;-59
2023/04/20 09:07:18;;;;;;;7.60;5.20;;;;;;;;;;5055997;28;20021;-59
2023/04/20 09:09:59;;;;;;;6.20;4.80;;;;;;;;;;5055618;28;20344;-59
2023/04/20 09:12:26;;;;;;;5.93;4.93;;;;;;;;;;5055519;28;20028;-59
2023/04/20 09:14:52;;;;;;;6.93;5.53;;;;;;;;;;5055521;28;20060;-59
2023/04/20 09:17:29;;;;;;;6.18;5.43;;;;;;;;;;5055433;28;20116;-59
2023/04/20 09:19:55;;;;;;;6.20;5.50;;;;;;;;;;5055743;28;20116;-59
2023/04/20 09:22:32;;;;;;;5.53;4.88;;;;;;;;;;5055304;28;20056;-59
2023/04/20 09:24:58;;;;;;;8.27;5.63;;;;;;;;;;5055228;28;20052;-59
2023/04/20 09:27:25;;;;;;;6.60;5.72;;;;;;;;;;5055399;28;20057;-59
2023/04/20 09:29:57;;;;;;;7.78;4.90;;;;;;;;;;5055887;28;20033;-58
2023/04/20 09:32:24;;;;;;;6.50;5.15;;;;;;;;;;5055121;28;20055;-59
2023/04/20 09:34:50;;;;;;;6.05;5.15;;;;;;;;;;5055157;28;20053;-59
2023/04/20 09:37:16;;;;;;;8.52;6.40;;;;;;;;;;5055433;28;20056;-59
2023/04/20 09:39:43;;;;;;;5.60;4.85;;;;;;;;;;5054508;28;20036;-59
2023/04/20 09:42:11;;;;;;;6.70;5.15;;;;;;;;;;5054736;28;20040;-59
2023/04/20 09:44:38;;;;;;;7.57;5.45;;;;;;;;;;5055603;28;20359;-59
2023/04/20 09:47:04;;;;;;;6.82;5.30;;;;;;;;;;5055038;28;20513;-59
2023/04/20 09:49:31;;;;;;;10.32;6.38;;;;;;;;;;5054399;28;20414;-59
2023/04/20 09:51:58;;;;;;;9.20;6.50;;;;;;;;;;5054657;28;20417;-59
2023/04/20 09:54:24;;;;;;;8.05;5.57;;;;;;;;;;5055122;28;20063;-59
2023/04/20 09:56:50;;;;;;;9.73;5.68;;;;;;;;;;5054934;28;20390;-59
2023/04/20 09:59:18;;;;;;;8.90;5.80;;;;;;;;;;5054376;28;20032;-59
2023/04/20 10:01:45;;;;;;;6.85;5.68;;;;;;;;;;5054356;28;20039;-59
2023/04/20 10:04:13;;;;;;;8.05;5.70;;;;;;;;;;5054498;28;20066;-59
2023/04/20 10:06:39;;;;;;;6.20;4.70;;;;;;;;;;5054973;28;20029;-59
2023/04/20 10:09:06;;;;;;;6.05;5.18;;;;;;;;;;5054442;28;20032;-59
2023/04/20 10:11:42;;;;;;;6.65;5.93;;;;;;;;;;5055145;28;20036;-59
2023/04/20 10:14:15;;;;;;;6.38;4.90;;;;;;;;;;5054577;28;20052;-59
2023/04/20 10:16:42;;;;;;;7.32;5.63;;;;;;;;;;5055048;28;20040;-59
2023/04/20 10:19:08;;;;;;;7.63;6.57;;;;;;;;;;5054178;28;20356;-59
2023/04/20 10:21:44;;;;;;;5.85;5.25;;;;;;;;;;5053973;28;20056;-59
2023/04/20 10:24:10;;;;;;;6.63;4.90;;;;;;;;;;5054310;28;20031;-59
2023/04/20 10:26:36;;;;;;;8.05;6.57;;;;;;;;;;5054556;28;20103;-59
2023/04/20 10:29:02;;;;;;;6.32;5.10;;;;;;;;;;5054703;28;20025;-59
2023/04/20 10:31:38;;;;;;;6.93;5.53;;;;;;;;;;5054008;28;20074;-59
2023/04/20 10:34:04;;;;;;;8.13;5.95;;;;;;;;;;5053777;28;20029;-59
2023/04/20 10:36:33;;;;;;;12.40;6.40;;;;;;;;;;5053930;28;20044;-59
2023/04/20 10:39:00;;;;;;;5.90;5.30;;;;;;;;;;5054429;28;20033;-59
2023/04/20 10:41:26;;;;;;;9.65;6.53;;;;;;;;;;5053934;28;20032;-59
2023/04/20 10:43:52;;;;;;;6.72;5.90;;;;;;;;;;5053883;28;20025;-60
2023/04/20 10:46:20;;;;;;;8.13;6.63;;;;;;;;;;5054738;28;20028;-59
2023/04/20 10:48:52;;;;;;;9.43;6.60;;;;;;;;;;5053798;28;20025;-59
2023/04/20 10:51:19;;;;;;;9.00;7.28;;;;;;;;;;5054360;28;20039;-59
2023/04/20 10:53:45;;;;;;;9.23;5.93;;;;;;;;;;5053758;28;20110;-59
2023/04/20 10:56:11;;;;;;;6.93;6.22;;;;;;;;;;5054113;28;20053;-59
2023/04/20 10:58:37;;;;;;;8.93;7.22;;;;;;;;;;5053864;28;20341;-59
2023/04/20 11:01:04;;;;;;;9.32;6.28;;;;;;;;;;5053671;28;20051;-59
2023/04/20 11:03:30;;;;;;;7.60;6.78;;;;;;;;;;5053835;28;20482;-59
2023/04/20 11:06:02;;;;;;;8.73;6.70;;;;;;;;;;5054271;28;20382;-59
2023/04/20 11:08:41;;;;;;;8.40;6.75;;;;;;;;;;5054132;28;20029;-59
2023/04/20 11:11:20;;;;;;;8.95;6.50;;;;;;;;;;5056791;28;20112;-59
2023/04/20 11:13:46;;;;;;;7.03;6.32;;;;;;;;;;5057523;28;20047;-59
2023/04/20 11:16:13;;;;;;;8.38;6.40;;;;;;;;;;5058201;28;20033;-59
2023/04/20 11:18:52;;;;;;;8.48;5.75;;;;;;;;;;5057829;28;20033;-59
2023/04/20 11:21:19;;;;;;;6.13;5.05;;;;;;;;;;5058296;28;20037;-59
2023/04/20 11:23:45;;;;;;;7.38;5.13;;;;;;;;;;5057539;28;20017;-59
2023/04/20 11:26:11;;;;;;;6.05;4.97;;;;;;;;;;5058069;28;20029;-59
2023/04/20 11:28:37;;;;;;;6.45;5.85;;;;;;;;;;5057969;28;20358;-59
2023/04/20 11:31:03;;;;;;;7.30;5.60;;;;;;;;;;5057498;28;20025;-59
2023/04/20 11:33:31;;;;;;;7.30;6.13;;;;;;;;;;5057719;28;20040;-59
2023/04/20 11:35:57;;;;;;;7.65;6.43;;;;;;;;;;5057364;28;20452;-59
2023/04/20 11:38:30;;;;;;;7.70;5.65;;;;;;;;;;5057077;28;20037;-59
2023/04/20 11:40:59;;;;;;;8.77;7.65;;;;;;;;;;5057245;28;20044;-59
2023/04/20 11:43:25;;;;;;;11.02;6.53;;;;;;;;;;5055447;28;20021;-58
2023/04/20 11:45:50;;;;;;;8.40;6.22;;;;;;;;;;5057976;28;20035;-59
2023/04/20 11:48:17;;;;;;;7.85;5.82;;;;;;;;;;5057164;28;20459;-59
2023/04/20 11:50:43;;;;;;;8.63;6.03;;;;;;;;;;5057288;28;20025;-59
2023/04/20 11:53:13;;;;;;;7.70;6.18;;;;;;;;;;5056885;28;20082;-59
2023/04/20 11:55:39;;;;;;;7.53;5.85;;;;;;;;;;5057225;28;20056;-57
2023/04/20 11:58:06;;;;;;;7.78;5.60;;;;;;;;;;5057336;28;20036;-56
2023/04/20 12:00:32;;;;;;;8.30;6.93;;;;;;;;;;5056846;28;20485;-57
2023/04/20 12:03:00;;;;;;;8.50;6.85;;;;;;;;;;5056886;28;20104;-56
2023/04/20 12:05:26;;;;;;;11.60;6.35;;;;;;;;;;5057356;28;20029;-55
2023/04/20 12:07:52;;;;;;;7.57;6.38;;;;;;;;;;5057577;28;20033;-57
2023/04/20 12:10:18;;;;;;;7.18;6.07;;;;;;;;;;5056778;28;20032;-57
2023/04/20 12:12:44;;;;;;;10.15;6.63;;;;;;;;;;5056598;28;20025;-56
2023/04/20 12:15:10;;;;;;;7.57;5.57;;;;;;;;;;5056776;28;20049;-56
2023/04/20 12:17:36;;;;;;;11.43;6.47;;;;;;;;;;5057133;28;20032;-56
2023/04/20 12:20:04;;;;;;;8.65;7.10;;;;;;;;;;5056406;28;20028;-56
2023/04/20 12:22:30;;;;;;;8.50;6.82;;;;;;;;;;5055931;28;20044;-56
2023/04/20 12:24:56;;;;;;;11.20;7.60;;;;;;;;;;5056520;28;20025;-57
2023/04/20 12:27:21;;;;;;;9.68;6.88;;;;;;;;;;5056757;28;20447;-56
2023/04/20 12:29:47;;;;;;;6.55;5.82;;;;;;;;;;5056681;28;20370;-57
2023/04/20 12:32:13;;;;;;;8.48;6.63;;;;;;;;;;5056456;28;20086;-52
2023/04/20 12:34:40;;;;;;;7.18;6.05;;;;;;;;;;5056414;28;20024;-55
2023/04/20 12:37:05;;;;;;;8.23;6.43;;;;;;;;;;5056167;28;20029;-53
2023/04/20 12:39:31;;;;;;;7.93;5.57;;;;;;;;;;5056011;28;20079;-53
2023/04/20 12:41:57;;;;;;;5.85;5.20;;;;;;;;;;5056071;28;20098;-55
2023/04/20 12:44:23;;;;;;;9.05;7.10;;;;;;;;;;5056065;28;20378;-55
2023/04/20 12:46:49;;;;;;;6.97;5.72;;;;;;;;;;5056807;28;20025;-53
2023/04/20 12:49:15;;;;;;;6.40;4.97;;;;;;;;;;5056025;28;20029;-55
2023/04/20 12:51:41;;;;;;;7.03;5.75;;;;;;;;;;5056440;28;20028;-54
2023/04/20 12:54:07;;;;;;;7.88;6.25;;;;;;;;;;5055926;28;20017;-54
2023/04/20 12:56:33;;;;;;;6.10;5.50;;;;;;;;;;5055869;28;20111;-53
2023/04/20 12:58:59;;;;;;;6.55;5.47;;;;;;;;;;5055727;28;20033;-55
2023/04/20 13:01:25;;;;;;;6.75;6.03;;;;;;;;;;5056298;28;20036;-55
2023/04/20 13:03:51;;;;;;;9.80;6.60;;;;;;;;;;5055665;28;20029;-54
2023/04/20 13:06:17;;;;;;;6.40;5.78;;;;;;;;;;5055947;28;20087;-52
2023/04/20 13:08:43;;;;;;;7.72;5.53;;;;;;;;;;5055742;28;20028;-53
2023/04/20 13:11:14;;;;;;;5.97;5.38;;;;;;;;;;5055449;28;20524;-53
2023/04/20 13:13:40;;;;;;;;;;;;;;;;;;5055935;28;20049;-53
2023/04/20 13:16:06;;;;;;;7.30;5.03;;;;;;;;;;5055869;28;19912;-55
2023/04/20 13:18:32;;;;;;;5.80;4.07;;;;;;;;;;5055388;28;20117;-51
2023/04/20 13:20:58;;;;;;;7.40;6.05;;;;;;;;;;5055023;28;20439;-55
2023/04/20 13:23:24;;;;;;;6.80;5.50;;;;;;;;;;5054995;28;20055;-55
2023/04/20 13:25:50;;;;;;;9.77;6.00;;;;;;;;;;5055477;28;20029;-53
2023/04/20 13:28:17;;;;;;;6.22;5.63;;;;;;;;;;5055662;28;20036;-54
2023/04/20 13:30:43;;;;;;;6.35;4.43;;;;;;;;;;5055609;28;20025;-55
2023/04/20 13:33:09;;;;;;;7.47;5.70;;;;;;;;;;5054149;28;20035;-53
2023/04/20 13:35:35;;;;;;;5.53;4.85;;;;;;;;;;5055794;28;20025;-55
2023/04/20 13:38:01;;;;;;;5.80;4.72;;;;;;;;;;5055339;28;20059;-53
2023/04/20 13:40:27;;;;;;;5.65;5.00;;;;;;;;;;5055380;28;20095;-55
2023/04/20 13:42:53;;;;;;;9.88;5.68;;;;;;;;;;5054906;28;20470;-55
2023/04/20 13:45:19;;;;;;;9.15;5.47;;;;;;;;;;5055411;28;20064;-56
2023/04/20 13:47:45;;;;;;;6.22;4.82;;;;;;;;;;5054709;28;20029;-56
2023/04/20 13:50:11;;;;;;;7.15;4.68;;;;;;;;;;5054730;28;20037;-54
2023/04/20 13:52:37;;;;;;;6.10;4.90;;;;;;;;;;5054955;28;20032;-54
2023/04/20 13:55:04;;;;;;;5.22;4.43;;;;;;;;;;5054600;28;20087;-55
2023/04/20 13:57:33;;;;;;;6.93;5.95;;;;;;;;;;5054897;28;20033;-56
2023/04/20 13:59:59;;;;;;;7.03;5.80;;;;;;;;;;5054560;28;20079;-56
2023/04/20 14:02:26;;;;;;;5.53;4.40;;;;;;;;;;5055342;28;20028;-52
2023/04/20 14:04:52;;;;;;;5.95;4.97;;;;;;;;;;5055223;28;20131;-50
2023/04/20 14:07:18;;;;;;;6.38;4.65;;;;;;;;;;5055030;28;20123;-56
2023/04/20 14:09:44;;;;;;;7.57;5.45;;;;;;;;;;5054393;28;20051;-52
2023/04/20 14:12:11;;;;;;;6.53;4.68;;;;;;;;;;5054344;28;20029;-56
2023/04/20 14:14:37;;;;;;;7.32;5.88;;;;;;;;;;5054343;28;20194;-55
2023/04/20 14:17:03;;;;;;;5.55;4.45;;;;;;;;;;5054772;28;20064;-56
2023/04/20 14:19:30;;;;;;;6.75;5.43;;;;;;;;;;5054438;28;20039;-54
2023/04/20 14:21:57;;;;;;;8.73;5.85;;;;;;;;;;5054092;28;20127;-55
2023/04/20 14:24:23;;;;;;;6.00;5.40;;;;;;;;;;5054523;28;20091;-56
2023/04/20 14:26:50;;;;;;;5.35;4.65;;;;;;;;;;5054240;28;20025;-56
2023/04/20 14:29:16;;;;;;;7.85;5.68;;;;;;;;;;5054554;28;20079;-54
2023/04/20 14:31:42;;;;;;;8.77;6.00;;;;;;;;;;5054436;28;20033;-55
2023/04/20 14:34:08;;;;;;;8.55;5.65;;;;;;;;;;5053800;28;20029;-57
2023/04/20 14:36:34;;;;;;;8.40;5.53;;;;;;;;;;5053921;28;20029;-52
2023/04/20 14:39:01;;;;;;;13.10;5.97;;;;;;;;;;5054296;28;20362;-54